createdAt,value
2023-03-20T00:03:42.803Z,45.78
2023-03-20T00:08:48.253Z,35.10
2023-03-20T00:13:51.182Z,32.45
2023-03-20T00:18:56.654Z,38.83
2023-03-20T00:24:00.698Z,40.42
2023-03-20T00:29:05.073Z,34.45
2023-03-20T00:34:14.121Z,29.02
2023-03-20T00:39:18.069Z,27.85
2023-03-20T00:44:23.955Z,26.40
2023-03-20T00:49:29.171Z,29.67
2023-03-20T00:54:33.303Z,30.27
2023-03-20T00:59:39.139Z,27.77
2023-03-20T01:04:43.173Z,30.25
2023-03-20T01:09:47.226Z,34.92
2023-03-20T01:14:53.979Z,32.45
2023-03-20T01:19:56.672Z,25.27
2023-03-20T01:25:00.952Z,29.80
2023-03-20T01:30:04.129Z,28.58
2023-03-20T01:35:07.470Z,23.45
2023-03-20T01:40:20.813Z,21.27
2023-03-20T01:45:27.509Z,24.53
2023-03-20T01:50:33.170Z,23.20
2023-03-20T01:55:39.581Z,21.10
2023-03-20T02:00:42.238Z,19.13
2023-03-20T02:05:45.738Z,17.53
2023-03-20T02:16:14.667Z,22.02
2023-03-20T02:21:55.455Z,18.85
2023-03-20T02:27:08.994Z,23.50
2023-03-20T02:33:00.297Z,24.88
2023-03-20T02:38:23.874Z,20.33
2023-03-20T02:43:36.362Z,18.45
2023-03-20T02:48:47.412Z,16.35
2023-03-20T02:53:56.535Z,22.00
2023-03-20T02:59:06.229Z,24.02
2023-03-20T03:04:12.720Z,19.75
2023-03-20T03:09:22.433Z,23.05
2023-03-20T03:14:33.777Z,23.25
2023-03-20T03:19:38.922Z,28.95
2023-03-20T03:24:45.988Z,23.33
2023-03-20T03:29:53.877Z,26.73
2023-03-20T03:34:57.129Z,26.63
2023-03-20T03:40:11.804Z,26.77
2023-03-20T03:45:18.322Z,21.98
2023-03-20T03:50:26.812Z,20.52
2023-03-20T03:55:35.256Z,21.02
2023-03-20T04:00:42.105Z,23.40
2023-03-20T04:05:47.132Z,19.65
2023-03-20T04:10:51.321Z,21.20
2023-03-20T04:15:54.040Z,15.73
2023-03-20T04:20:56.809Z,19.50
2023-03-20T04:26:01.728Z,13.10
2023-03-20T04:31:04.448Z,15.90
2023-03-20T04:36:08.400Z,12.93
2023-03-20T04:41:12.362Z,11.85
2023-03-20T04:46:15.024Z,9.60
2023-03-20T04:51:17.671Z,11.17
2023-03-20T04:56:21.579Z,8.57
2023-03-20T05:01:24.840Z,8.63
2023-03-20T05:06:27.542Z,10.85
2023-03-20T05:11:31.947Z,8.40
2023-03-20T05:16:34.560Z,6.88
2023-03-20T05:21:37.184Z,7.63
2023-03-20T05:26:41.172Z,10.03
2023-03-20T05:31:43.830Z,9.65
2023-03-20T05:36:46.515Z,14.27
2023-03-20T05:41:50.564Z,8.30
2023-03-20T05:46:53.164Z,9.48
2023-03-20T05:51:55.715Z,13.73
2023-03-20T05:56:59.668Z,18.05
2023-03-20T06:02:02.265Z,15.32
2023-03-20T06:07:06.225Z,15.30
2023-03-20T06:12:10.592Z,20.08
2023-03-20T06:17:13.256Z,19.00
2023-03-20T06:22:16.086Z,18.13
2023-03-20T06:27:20.551Z,19.92
2023-03-20T06:32:23.239Z,20.80
2023-03-20T06:37:26.259Z,22.27
2023-03-20T06:42:30.900Z,19.42
2023-03-20T06:47:33.473Z,23.80
2023-03-20T06:52:36.636Z,25.23
2023-03-20T06:57:41.372Z,19.77
2023-03-20T07:02:44.594Z,19.60
2023-03-20T07:07:47.237Z,20.77
2023-03-20T07:12:51.946Z,16.73
2023-03-20T07:17:54.903Z,16.77
2023-03-20T07:22:57.493Z,17.05
2023-03-20T07:28:01.366Z,14.77
2023-03-20T07:33:04.502Z,15.35
2023-03-20T07:38:07.476Z,13.68
2023-03-20T07:43:11.417Z,14.98
2023-03-20T07:48:14.028Z,15.57
2023-03-20T07:53:16.751Z,16.60
2023-03-20T07:58:20.939Z,13.17
2023-03-20T08:03:23.687Z,13.35
2023-03-20T08:08:26.560Z,15.50
2023-03-20T08:13:30.714Z,14.70
2023-03-20T08:18:34.276Z,14.13
2023-03-20T08:23:36.923Z,16.42
2023-03-20T08:28:47.555Z,17.53
2023-03-20T08:33:50.837Z,19.63
2023-03-20T08:38:53.622Z,15.20
2023-03-20T08:43:57.517Z,12.48
2023-03-20T08:49:00.748Z,16.20
2023-03-20T08:54:03.291Z,12.45
2023-03-20T08:59:07.248Z,14.25
2023-03-20T09:04:10.570Z,11.40
2023-03-20T09:09:15.824Z,14.68
2023-03-20T09:14:19.901Z,14.30
2023-03-20T09:19:22.504Z,10.13
2023-03-20T09:24:25.144Z,12.40
2023-03-20T09:29:29.330Z,10.47
2023-03-20T09:34:31.949Z,15.00
2023-03-20T09:39:35.226Z,11.93
2023-03-20T09:44:49.107Z,14.25
2023-03-20T09:50:07.128Z,9.23
2023-03-20T09:55:15.401Z,13.32
2023-03-20T10:00:24.666Z,8.23
2023-03-20T10:05:29.946Z,8.68
2023-03-20T10:10:42.381Z,10.30
2023-03-20T10:15:52.797Z,10.52
2023-03-20T10:20:58.937Z,8.27
2023-03-20T10:26:06.188Z,8.93
2023-03-20T10:31:22.926Z,8.32
2023-03-20T10:36:42.663Z,11.02
2023-03-20T10:41:52.682Z,11.57
2023-03-20T10:46:58.740Z,8.85
2023-03-20T10:52:04.637Z,10.70
2023-03-20T10:57:15.360Z,10.93
2023-03-20T11:02:21.839Z,8.75
2023-03-20T11:07:28.298Z,7.28
2023-03-20T11:12:34.230Z,6.35
2023-03-20T11:17:38.135Z,11.07
2023-03-20T11:22:41.740Z,7.78
2023-03-20T11:27:44.405Z,8.85
2023-03-20T11:32:50.711Z,6.83
2023-03-20T11:37:55.813Z,8.23
2023-03-20T11:43:04.496Z,9.90
2023-03-20T11:48:17.683Z,7.57
2023-03-20T11:53:25.902Z,9.70
2023-03-20T11:58:29.897Z,5.60
2023-03-20T12:03:42.849Z,5.78
2023-03-20T12:08:51.339Z,5.93
2023-03-20T12:13:57.011Z,9.18
2023-03-20T12:19:06.501Z,5.68
2023-03-20T12:24:17.624Z,6.55
2023-03-20T12:29:26.997Z,6.45
2023-03-20T12:34:38.182Z,8.82
2023-03-20T12:39:48.513Z,4.78
2023-03-20T12:44:57.246Z,5.68
2023-03-20T12:50:11.848Z,6.22
2023-03-20T12:55:26.864Z,7.07
2023-03-20T13:00:35.356Z,8.25
2023-03-20T13:05:46.023Z,7.38
2023-03-20T13:10:58.192Z,7.28
2023-03-20T13:16:12.089Z,8.18
2023-03-20T13:26:32.616Z,5.07
2023-03-20T13:31:45.406Z,6.72
2023-03-20T13:37:16.048Z,7.38
2023-03-20T13:42:30.667Z,8.60
2023-03-20T13:47:37.200Z,13.50
2023-03-20T13:52:48.008Z,9.73
2023-03-20T13:58:06.524Z,12.93
2023-03-20T14:03:28.626Z,9.38
2023-03-20T14:08:37.636Z,9.23
2023-03-20T14:13:41.220Z,10.63
2023-03-20T14:18:45.660Z,15.63
2023-03-20T14:23:52.451Z,14.30
2023-03-20T14:28:59.889Z,11.60
2023-03-20T14:34:16.232Z,13.13
2023-03-20T14:39:41.333Z,14.73
2023-03-20T14:45:04.943Z,12.75
2023-03-20T14:50:15.555Z,15.17
2023-03-20T14:55:34.509Z,9.80
2023-03-20T15:00:46.566Z,14.80
2023-03-20T15:05:58.309Z,12.68
2023-03-20T15:11:08.842Z,13.07
2023-03-20T15:16:13.549Z,12.98
2023-03-20T15:21:19.178Z,18.50
2023-03-20T15:26:25.266Z,19.40
2023-03-20T15:31:30.825Z,15.55
2023-03-20T15:36:36.894Z,15.55
2023-03-20T15:41:40.877Z,17.17
2023-03-20T15:46:52.093Z,19.45
2023-03-20T15:51:58.704Z,25.95
2023-03-20T15:57:03.558Z,24.10
2023-03-20T16:02:12.881Z,25.52
2023-03-20T16:07:22.696Z,19.13
2023-03-20T16:12:27.691Z,19.92
2023-03-20T16:17:30.636Z,22.55
2023-03-20T16:22:34.622Z,28.85
2023-03-20T16:27:43.623Z,24.50
2023-03-20T16:32:51.284Z,26.27
2023-03-20T16:37:56.269Z,23.58
2023-03-20T16:43:06.588Z,22.45
2023-03-20T16:48:33.636Z,27.00
2023-03-20T16:53:42.269Z,21.38
2023-03-20T16:58:47.043Z,31.17
2023-03-20T17:03:53.645Z,26.23
2023-03-20T17:09:00.661Z,24.17
2023-03-20T17:14:05.211Z,23.85
2023-03-20T17:19:11.677Z,23.15
2023-03-20T17:24:16.034Z,25.35
2023-03-20T17:29:20.096Z,29.98
2023-03-20T17:34:22.729Z,39.80
2023-03-20T17:39:25.308Z,29.93
2023-03-20T17:44:29.293Z,29.25
2023-03-20T17:49:33.225Z,36.35
2023-03-20T17:54:35.910Z,30.42
2023-03-20T17:59:39.850Z,34.17
2023-03-20T18:04:42.561Z,31.48
2023-03-20T18:09:46.058Z,30.10
2023-03-20T18:14:50.054Z,32.47
2023-03-20T18:19:52.647Z,36.97
2023-03-20T18:24:55.298Z,43.77
2023-03-20T18:29:59.742Z,33.03
2023-03-20T18:35:02.297Z,28.98
2023-03-20T18:40:07.712Z,27.67
2023-03-20T18:45:12.870Z,27.40
2023-03-20T18:50:24.711Z,34.05
2023-03-20T18:55:29.243Z,31.02
2023-03-20T19:00:38.177Z,31.60
2023-03-20T19:05:41.156Z,22.55
2023-03-20T19:10:45.216Z,23.40
2023-03-20T19:15:49.278Z,27.35
2023-03-20T19:20:53.074Z,20.00
2023-03-20T19:25:56.309Z,25.17
2023-03-20T19:31:00.900Z,22.73
2023-03-20T19:36:04.533Z,25.90
2023-03-20T19:41:08.857Z,32.25
2023-03-20T19:46:28.485Z,32.97
2023-03-20T19:51:38.713Z,26.40
2023-03-20T19:56:41.934Z,26.10
2023-03-20T20:01:46.907Z,22.15
2023-03-20T20:06:49.671Z,30.10
2023-03-20T20:11:52.340Z,23.70
2023-03-20T20:16:56.323Z,24.23
2023-03-20T20:22:24.775Z,21.90
2023-03-20T20:27:21.519Z,26.65
2023-03-20T20:32:27.412Z,31.80
2023-03-20T20:38:25.075Z,21.77
2023-03-20T20:42:56.148Z,23.33
2023-03-20T20:48:02.418Z,17.65
2023-03-20T20:53:05.274Z,26.80
2023-03-20T20:58:07.898Z,25.23
2023-03-20T21:03:12.236Z,19.47
2023-03-20T21:08:16.450Z,24.38
2023-03-20T21:13:19.320Z,23.48
2023-03-20T21:18:23.232Z,22.90
2023-03-20T21:23:26.157Z,22.17
2023-03-20T21:28:29.155Z,27.02
2023-03-20T21:33:34.634Z,31.05
2023-03-20T21:39:05.865Z,37.40
2023-03-20T21:44:01.440Z,28.45
2023-03-20T21:49:58.489Z,33.10
2023-03-20T21:55:06.068Z,35.03
2023-03-20T22:22:02.218Z,38.22
2023-03-20T22:27:43.574Z,37.15
2023-03-20T22:38:23.873Z,49.72
2023-03-20T22:44:01.205Z,39.70
2023-03-20T22:48:23.988Z,40.88
2023-03-20T22:53:29.072Z,48.53
2023-03-20T22:58:31.674Z,47.58
2023-03-20T23:03:41.428Z,46.40
2023-03-20T23:08:52.389Z,49.35
2023-03-20T23:13:58.031Z,53.53
2023-03-20T23:19:00.644Z,55.78
2023-03-20T23:24:06.311Z,56.37
2023-03-20T23:29:09.538Z,63.13
2023-03-20T23:34:12.146Z,53.33
2023-03-20T23:39:16.266Z,48.07
2023-03-20T23:44:18.855Z,53.33
2023-03-20T23:49:21.458Z,48.57
2023-03-20T23:54:25.386Z,59.03
2023-03-20T23:59:27.939Z,46.75
